sensor_id;sensor_type;location;lat;lon;timestamp;pressure;altitude;pressure_sealevel;temperature;humidity
38400;BME280;24180;42.676;23.320;2023-08-17T00:01:59;94820.81;;;21.53;78.48
38400;BME280;24180;42.676;23.320;2023-08-17T00:04:25;94832.94;;;21.67;78.50
38400;BME280;24180;42.676;23.320;2023-08-17T00:06:50;94836.59;;;21.73;78.51
38400;BME280;24180;42.676;23.320;2023-08-17T00:09:16;94830.50;;;21.66;78.51
38400;BME280;24180;42.676;23.320;2023-08-17T00:11:41;94810.50;;;21.51;78.49
38400;BME280;24180;42.676;23.320;2023-08-17T00:14:07;94824.44;;;21.52;78.49
38400;BME280;24180;42.676;23.320;2023-08-17T00:16:32;94803.84;;;21.36;78.48
38400;BME280;24180;42.676;23.320;2023-08-17T00:18:58;94802.78;;;21.37;78.48
38400;BME280;24180;42.676;23.320;2023-08-17T00:21:23;94826.09;;;21.46;78.48
38400;BME280;24180;42.676;23.320;2023-08-17T00:23:49;94827.50;;;21.49;78.49
38400;BME280;24180;42.676;23.320;2023-08-17T00:26:15;94813.34;;;21.30;78.47
38400;BME280;24180;42.676;23.320;2023-08-17T00:28:40;94832.56;;;21.44;78.48
38400;BME280;24180;42.676;23.320;2023-08-17T00:31:06;94824.47;;;21.32;78.47
38400;BME280;24180;42.676;23.320;2023-08-17T00:33:31;94820.03;;;21.33;78.47
38400;BME280;24180;42.676;23.320;2023-08-17T00:35:57;94835.06;;;21.19;78.46
38400;BME280;24180;42.676;23.320;2023-08-17T00:38:22;94807.25;;;21.16;78.45
38400;BME280;24180;42.676;23.320;2023-08-17T00:40:48;94832.00;;;21.22;78.46
38400;BME280;24180;42.676;23.320;2023-08-17T00:43:13;94807.25;;;21.16;78.45
38400;BME280;24180;42.676;23.320;2023-08-17T00:45:39;94817.59;;;21.25;78.47
38400;BME280;24180;42.676;23.320;2023-08-17T00:48:06;94828.13;;;21.31;78.47
38400;BME280;24180;42.676;23.320;2023-08-17T00:50:34;94825.69;;;21.16;78.45
38400;BME280;24180;42.676;23.320;2023-08-17T00:53:00;94803.03;;;21.09;78.45
38400;BME280;24180;42.676;23.320;2023-08-17T00:55:26;94787.22;;;20.96;78.44
38400;BME280;24180;42.676;23.320;2023-08-17T00:57:53;94839.28;;;21.07;78.45
38400;BME280;24180;42.676;23.320;2023-08-17T01:00:19;94825.09;;;21.14;78.45
38400;BME280;24180;42.676;23.320;2023-08-17T01:02:46;94819.41;;;21.17;78.46
38400;BME280;24180;42.676;23.320;2023-08-17T01:05:12;94780.94;;;20.84;78.43
38400;BME280;24180;42.676;23.320;2023-08-17T01:07:38;94808.69;;;20.86;78.46
38400;BME280;24180;42.676;23.320;2023-08-17T01:10:06;94820.44;;;21.03;78.44
38400;BME280;24180;42.676;23.320;2023-08-17T01:12:43;94813.16;;;21.05;78.44
38400;BME280;24180;42.676;23.320;2023-08-17T01:15:22;94823.69;;;21.05;78.44
38400;BME280;24180;42.676;23.320;2023-08-17T01:18:00;94829.34;;;21.02;78.44
38400;BME280;24180;42.676;23.320;2023-08-17T01:20:31;94822.06;;;20.91;78.43
38400;BME280;24180;42.676;23.320;2023-08-17T01:23:08;94819.41;;;20.91;78.43
38400;BME280;24180;42.676;23.320;2023-08-17T01:25:34;94818.59;;;20.84;78.43
38400;BME280;24180;42.676;23.320;2023-08-17T01:28:02;94799.19;;;20.78;78.42
38400;BME280;24180;42.676;23.320;2023-08-17T01:30:30;94798.78;;;20.82;78.43
38400;BME280;24180;42.676;23.320;2023-08-17T01:33:03;94812.31;;;20.72;78.42
38400;BME280;24180;42.676;23.320;2023-08-17T01:35:54;94820.25;;;20.78;78.42
38400;BME280;24180;42.676;23.320;2023-08-17T01:38:23;94792.84;;;20.60;78.43
38400;BME280;24180;42.676;23.320;2023-08-17T01:40:50;94815.34;;;20.69;78.44
38400;BME280;24180;42.676;23.320;2023-08-17T01:43:18;94810.25;;;20.61;78.44
38400;BME280;24180;42.676;23.320;2023-08-17T01:45:44;94815.94;;;20.64;78.43
38400;BME280;24180;42.676;23.320;2023-08-17T01:48:09;94861.88;;;20.62;78.44
38400;BME280;24180;42.676;23.320;2023-08-17T01:50:35;94808.25;;;20.56;78.43
38400;BME280;24180;42.676;23.320;2023-08-17T01:53:00;94807.63;;;20.61;78.44
38400;BME280;24180;42.676;23.320;2023-08-17T01:55:26;94795.31;;;20.55;78.40
38400;BME280;24180;42.676;23.320;2023-08-17T01:57:52;94814.09;;;20.52;78.40
38400;BME280;24180;42.676;23.320;2023-08-17T02:00:18;94797.66;;;20.36;78.42
38400;BME280;24180;42.676;23.320;2023-08-17T02:02:44;94807.84;;;20.53;78.42
38400;BME280;24180;42.676;23.320;2023-08-17T02:05:10;94800.94;;;20.45;78.42
38400;BME280;24180;42.676;23.320;2023-08-17T02:07:35;94789.78;;;20.36;78.42
38400;BME280;24180;42.676;23.320;2023-08-17T02:10:01;94809.84;;;20.51;78.39
38400;BME280;24180;42.676;23.320;2023-08-17T02:12:26;94814.09;;;20.52;78.40
38400;BME280;24180;42.676;23.320;2023-08-17T02:14:51;94817.75;;;20.51;78.42
38400;BME280;24180;42.676;23.320;2023-08-17T02:17:18;94805.78;;;20.35;78.39
38400;BME280;24180;42.676;23.320;2023-08-17T02:19:44;94810.06;;;20.43;78.39
38400;BME280;24180;42.676;23.320;2023-08-17T02:22:10;94801.28;;;20.43;78.39
38400;BME280;24180;42.676;23.320;2023-08-17T02:24:35;94805.97;;;20.27;78.40
38400;BME280;24180;42.676;23.320;2023-08-17T02:27:01;94793.19;;;20.17;78.39
38400;BME280;24180;42.676;23.320;2023-08-17T02:29:26;94800.91;;;20.25;78.40
38400;BME280;24180;42.676;23.320;2023-08-17T02:31:52;94807.38;;;20.29;78.40
38400;BME280;24180;42.676;23.320;2023-08-17T02:34:17;94814.66;;;20.34;78.39
38400;BME280;24180;42.676;23.320;2023-08-17T02:36:43;94804.94;;;20.28;78.38
38400;BME280;24180;42.676;23.320;2023-08-17T02:39:08;94800.44;;;20.15;78.37
38400;BME280;24180;42.676;23.320;2023-08-17T02:41:33;94795.22;;;20.22;78.38
38400;BME280;24180;42.676;23.320;2023-08-17T02:44:00;94799.22;;;20.11;78.37
38400;BME280;24180;42.676;23.320;2023-08-17T02:46:25;94785.06;;;19.99;78.36
38400;BME280;24180;42.676;23.320;2023-08-17T02:48:51;94799.03;;;20.13;78.36
38400;BME280;24180;42.676;23.320;2023-08-17T02:51:16;94776.94;;;20.07;78.39
38400;BME280;24180;42.676;23.320;2023-08-17T02:53:42;94807.38;;;20.29;78.38
38400;BME280;24180;42.676;23.320;2023-08-17T02:56:07;94792.38;;;20.17;78.37
38400;BME280;24180;42.676;23.320;2023-08-17T02:58:37;94801.66;;;20.13;78.38
38400;BME280;24180;42.676;23.320;2023-08-17T03:01:04;94792.72;;;20.01;78.37
38400;BME280;24180;42.676;23.320;2023-08-17T03:03:29;94775.28;;;19.93;78.37
38400;BME280;24180;42.676;23.320;2023-08-17T03:05:54;94780.94;;;19.90;78.34
38400;BME280;24180;42.676;23.320;2023-08-17T03:08:20;94798.19;;;20.06;78.38
38400;BME280;24180;42.676;23.320;2023-08-17T03:10:45;94800.59;;;20.07;78.36
38400;BME280;24180;42.676;23.320;2023-08-17T03:13:11;94797.16;;;20.00;78.35
38400;BME280;24180;42.676;23.320;2023-08-17T03:15:36;94795.94;;;19.96;78.38
38400;BME280;24180;42.676;23.320;2023-08-17T03:18:05;94804.25;;;20.06;78.36
38400;BME280;24180;42.676;23.320;2023-08-17T03:20:30;94787.22;;;19.82;78.34
38400;BME280;24180;42.676;23.320;2023-08-17T03:22:56;94786.19;;;19.83;78.34
38400;BME280;24180;42.676;23.320;2023-08-17T03:25:21;94804.19;;;19.93;78.35
38400;BME280;24180;42.676;23.320;2023-08-17T03:27:46;94776.63;;;19.69;78.33
38400;BME280;24180;42.676;23.320;2023-08-17T03:30:12;94805.59;;;19.82;78.34
38400;BME280;24180;42.676;23.320;2023-08-17T03:32:37;94777.25;;;19.78;78.33
38400;BME280;24180;42.676;23.320;2023-08-17T03:35:03;94796.91;;;19.82;78.34
38400;BME280;24180;42.676;23.320;2023-08-17T03:37:29;94798.53;;;19.83;78.34
38400;BME280;24180;42.676;23.320;2023-08-17T03:39:54;94789.75;;;19.69;78.33
38400;BME280;24180;42.676;23.320;2023-08-17T03:42:19;94810.03;;;19.88;78.34
38400;BME280;24180;42.676;23.320;2023-08-17T03:44:45;94816.94;;;19.88;78.37
38400;BME280;24180;42.676;23.320;2023-08-17T03:47:10;94806.19;;;19.84;78.35
38400;BME280;24180;42.676;23.320;2023-08-17T03:49:36;94832.22;;;19.73;78.34
38400;BME280;24180;42.676;23.320;2023-08-17T03:52:02;94791.56;;;19.69;78.33
38400;BME280;24180;42.676;23.320;2023-08-17T03:54:27;94815.78;;;19.99;78.36
38400;BME280;24180;42.676;23.320;2023-08-17T03:56:53;94825.84;;;19.95;78.38
38400;BME280;24180;42.676;23.320;2023-08-17T03:59:18;94828.66;;;19.93;78.37
38400;BME280;24180;42.676;23.320;2023-08-17T04:01:44;94829.50;;;20.07;78.39
38400;BME280;24180;42.676;23.320;2023-08-17T04:04:09;94808.63;;;19.86;78.37
38400;BME280;24180;42.676;23.320;2023-08-17T04:06:34;94811.66;;;19.83;78.37
38400;BME280;24180;42.676;23.320;2023-08-17T04:09:00;94812.13;;;19.83;78.37
38400;BME280;24180;42.676;23.320;2023-08-17T04:11:26;94819.41;;;19.98;78.38
38400;BME280;24180;42.676;23.320;2023-08-17T04:13:51;94810.13;;;19.98;78.38
38400;BME280;24180;42.676;23.320;2023-08-17T04:16:17;94914.13;;;20.11;78.39
38400;BME280;24180;42.676;23.320;2023-08-17T04:18:42;94824.88;;;20.11;78.39
38400;BME280;24180;42.676;23.320;2023-08-17T04:21:08;94832.47;;;20.25;78.40
38400;BME280;24180;42.676;23.320;2023-08-17T04:23:33;94826.34;;;20.25;78.39
38400;BME280;24180;42.676;23.320;2023-08-17T04:25:58;94841.16;;;20.32;78.41
38400;BME280;24180;42.676;23.320;2023-08-17T04:28:24;94809.75;;;20.32;78.39
38400;BME280;24180;42.676;23.320;2023-08-17T04:30:49;94821.53;;;20.11;78.40
38400;BME280;24180;42.676;23.320;2023-08-17T04:33:15;94836.13;;;20.31;78.41
38400;BME280;24180;42.676;23.320;2023-08-17T04:35:40;94827.00;;;20.31;78.41
38400;BME280;24180;42.676;23.320;2023-08-17T04:38:06;94808.59;;;20.33;78.41
38400;BME280;24180;42.676;23.320;2023-08-17T04:40:31;94802.13;;;20.33;78.40
38400;BME280;24180;42.676;23.320;2023-08-17T04:42:57;94828.84;;;20.29;78.41
38400;BME280;24180;42.676;23.320;2023-08-17T04:45:23;94832.72;;;20.40;78.43
38400;BME280;24180;42.676;23.320;2023-08-17T04:47:48;94794.19;;;20.50;78.40
38400;BME280;24180;42.676;23.320;2023-08-17T04:50:15;94811.03;;;20.23;78.41
38400;BME280;24180;42.676;23.320;2023-08-17T04:52:43;94804.56;;;20.35;78.42
38400;BME280;24180;42.676;23.320;2023-08-17T04:55:08;94804.56;;;20.38;78.42
38400;BME280;24180;42.676;23.320;2023-08-17T04:57:34;94779.44;;;20.22;78.40
38400;BME280;24180;42.676;23.320;2023-08-17T04:59:59;94801.28;;;20.35;78.41
38400;BME280;24180;42.676;23.320;2023-08-17T05:02:25;94807.38;;;20.36;78.41
38400;BME280;24180;42.676;23.320;2023-08-17T05:04:50;94826.00;;;20.48;78.42
38400;BME280;24180;42.676;23.320;2023-08-17T05:07:15;94826.47;;;20.51;78.42
38400;BME280;24180;42.676;23.320;2023-08-17T05:09:41;94780.44;;;20.51;78.40
38400;BME280;24180;42.676;23.320;2023-08-17T05:12:07;94823.84;;;20.51;78.42
38400;BME280;24180;42.676;23.320;2023-08-17T05:14:32;94834.78;;;20.55;78.40
38400;BME280;24180;42.676;23.320;2023-08-17T05:16:57;94807.03;;;20.55;78.38
38400;BME280;24180;42.676;23.320;2023-08-17T05:19:23;94821.59;;;20.61;78.41
38400;BME280;24180;42.676;23.320;2023-08-17T05:21:48;94828.91;;;20.66;78.43
38400;BME280;24180;42.676;23.320;2023-08-17T05:24:15;94812.91;;;20.66;78.42
38400;BME280;24180;42.676;23.320;2023-08-17T05:26:41;94815.09;;;20.51;78.42
38400;BME280;24180;42.676;23.320;2023-08-17T05:29:06;94830.94;;;20.70;78.44
38400;BME280;24180;42.676;23.320;2023-08-17T05:31:32;94821.81;;;20.73;78.45
38400;BME280;24180;42.676;23.320;2023-08-17T05:33:57;94837.63;;;20.79;78.45
38400;BME280;24180;42.676;23.320;2023-08-17T05:36:22;94809.91;;;20.70;78.44
38400;BME280;24180;42.676;23.320;2023-08-17T05:38:48;94831.75;;;20.84;78.46
38400;BME280;24180;42.676;23.320;2023-08-17T05:41:13;94831.16;;;20.89;78.46
38400;BME280;24180;42.676;23.320;2023-08-17T05:43:39;94856.28;;;20.91;78.46
38400;BME280;24180;42.676;23.320;2023-08-17T05:46:04;94837.66;;;20.91;78.47
38400;BME280;24180;42.676;23.320;2023-08-17T05:48:30;94832.56;;;21.04;78.47
38400;BME280;24180;42.676;23.320;2023-08-17T05:50:56;94841.69;;;21.02;78.46
38400;BME280;24180;42.676;23.320;2023-08-17T05:53:21;94851.22;;;21.09;78.48
38400;BME280;24180;42.676;23.320;2023-08-17T05:55:47;94841.50;;;21.16;78.48
38400;BME280;24180;42.676;23.320;2023-08-17T05:58:12;94820.22;;;21.16;78.49
38400;BME280;24180;42.676;23.320;2023-08-17T06:00:38;94837.22;;;21.31;78.50
38400;BME280;24180;42.676;23.320;2023-08-17T06:03:04;94842.28;;;21.42;78.52
38400;BME280;24180;42.676;23.320;2023-08-17T06:05:29;94856.88;;;21.72;78.53
38400;BME280;24180;42.676;23.320;2023-08-17T06:07:59;94846.28;;;21.72;78.54
38400;BME280;24180;42.676;23.320;2023-08-17T06:10:24;94843.84;;;21.85;78.55
38400;BME280;24180;42.676;23.320;2023-08-17T06:12:54;94848.28;;;21.97;78.56
38400;BME280;24180;42.676;23.320;2023-08-17T06:15:20;94843.16;;;22.03;78.57
38400;BME280;24180;42.676;23.320;2023-08-17T06:17:46;94819.00;;;22.16;78.56
38400;BME280;24180;42.676;23.320;2023-08-17T06:20:12;94822.25;;;22.18;78.58
38400;BME280;24180;42.676;23.320;2023-08-17T06:22:37;94833.91;;;22.25;78.59
38400;BME280;24180;42.676;23.320;2023-08-17T06:25:03;94834.63;;;22.43;78.60
38400;BME280;24180;42.676;23.320;2023-08-17T06:27:30;94879.66;;;22.75;78.67
38400;BME280;24180;42.676;23.320;2023-08-17T06:29:56;94841.56;;;22.75;78.63
38400;BME280;24180;42.676;23.320;2023-08-17T06:32:21;94850.16;;;22.90;78.65
38400;BME280;24180;42.676;23.320;2023-08-17T06:34:46;94839.75;;;23.15;78.65
38400;BME280;24180;42.676;23.320;2023-08-17T06:37:12;94847.97;;;23.32;78.67
38400;BME280;24180;42.676;23.320;2023-08-17T06:39:37;94856.81;;;23.44;78.68
38400;BME280;24180;42.676;23.320;2023-08-17T06:42:03;94850.28;;;23.46;78.68
38400;BME280;24180;42.676;23.320;2023-08-17T06:44:28;94848.44;;;23.72;78.74
38400;BME280;24180;42.676;23.320;2023-08-17T06:46:56;94853.00;;;23.83;78.76
38400;BME280;24180;42.676;23.320;2023-08-17T06:49:21;94856.38;;;23.90;78.72
38400;BME280;24180;42.676;23.320;2023-08-17T06:51:47;94857.44;;;24.07;78.74
38400;BME280;24180;42.676;23.320;2023-08-17T06:54:13;94867.00;;;24.08;78.74
38400;BME280;24180;42.676;23.320;2023-08-17T06:56:38;94860.97;;;24.19;78.79
38400;BME280;24180;42.676;23.320;2023-08-17T06:59:04;94861.25;;;24.29;78.80
38400;BME280;24180;42.676;23.320;2023-08-17T07:01:29;94869.66;;;24.44;78.81
38400;BME280;24180;42.676;23.320;2023-08-17T07:03:54;94866.38;;;24.61;78.82
38400;BME280;24180;42.676;23.320;2023-08-17T07:06:21;94881.78;;;24.81;78.85
38400;BME280;24180;42.676;23.320;2023-08-17T07:08:46;94855.28;;;24.82;78.85
38400;BME280;24180;42.676;23.320;2023-08-17T07:11:11;94864.84;;;25.01;78.86
38400;BME280;24180;42.676;23.320;2023-08-17T07:13:37;94863.03;;;25.13;78.87
38400;BME280;24180;42.676;23.320;2023-08-17T07:16:02;94851.44;;;25.49;78.91
38400;BME280;24180;42.676;23.320;2023-08-17T07:18:28;94864.72;;;25.73;78.92
38400;BME280;24180;42.676;23.320;2023-08-17T07:20:53;94885.59;;;26.27;79.06
38400;BME280;24180;42.676;23.320;2023-08-17T07:23:19;94882.41;;;26.65;79.00
38400;BME280;24180;42.676;23.320;2023-08-17T07:25:44;94894.94;;;26.93;79.11
38400;BME280;24180;42.676;23.320;2023-08-17T07:28:09;94865.94;;;26.91;79.11
38400;BME280;24180;42.676;23.320;2023-08-17T07:30:35;94862.81;;;26.83;79.11
38400;BME280;24180;42.676;23.320;2023-08-17T07:33:00;94871.69;;;26.88;79.12
38400;BME280;24180;42.676;23.320;2023-08-17T07:35:26;94869.03;;;26.88;79.12
38400;BME280;24180;42.676;23.320;2023-08-17T07:37:51;60017.63;;;24.24;78.88
38400;BME280;24180;42.676;23.320;2023-08-17T07:40:17;94871.06;;;26.81;79.11
38400;BME280;24180;42.676;23.320;2023-08-17T07:42:42;94867.06;;;26.76;79.10
38400;BME280;24180;42.676;23.320;2023-08-17T07:45:08;94898.75;;;26.85;79.11
38400;BME280;24180;42.676;23.320;2023-08-17T07:47:34;60034.38;;;24.41;78.88
38400;BME280;24180;42.676;23.320;2023-08-17T07:50:04;94876.28;;;27.05;79.12
38400;BME280;24180;42.676;23.320;2023-08-17T07:52:29;94874.16;;;27.07;79.13
38400;BME280;24180;42.676;23.320;2023-08-17T07:54:55;94886.63;;;27.18;79.13
38400;BME280;24180;42.676;23.320;2023-08-17T07:57:20;94867.38;;;27.24;79.15
38400;BME280;24180;42.676;23.320;2023-08-17T07:59:46;94885.16;;;27.27;79.15
38400;BME280;24180;42.676;23.320;2023-08-17T08:02:11;94873.09;;;27.36;79.16
38400;BME280;24180;42.676;23.320;2023-08-17T08:04:37;94888.59;;;27.56;79.17
38400;BME280;24180;42.676;23.320;2023-08-17T08:07:02;94886.38;;;27.64;79.18
38400;BME280;24180;42.676;23.320;2023-08-17T08:09:27;94893.63;;;27.69;79.18
38400;BME280;24180;42.676;23.320;2023-08-17T08:11:53;60034.38;;;24.41;78.88
38400;BME280;24180;42.676;23.320;2023-08-17T08:14:18;94823.38;;;27.63;79.18
38400;BME280;24180;42.676;23.320;2023-08-17T08:16:44;60017.63;;;24.24;78.88
38400;BME280;24180;42.676;23.320;2023-08-17T08:19:09;94877.97;;;27.89;79.20
38400;BME280;24180;42.676;23.320;2023-08-17T08:21:34;94873.59;;;28.00;79.21
38400;BME280;24180;42.676;23.320;2023-08-17T08:24:00;94858.75;;;28.04;79.22
38400;BME280;24180;42.676;23.320;2023-08-17T08:26:25;94867.31;;;28.06;79.21
38400;BME280;24180;42.676;23.320;2023-08-17T08:28:51;60034.38;;;24.41;78.88
38400;BME280;24180;42.676;23.320;2023-08-17T08:31:16;94806.97;;;27.95;79.20
38400;BME280;24180;42.676;23.320;2023-08-17T08:33:43;94861.13;;;28.39;79.24
38400;BME280;24180;42.676;23.320;2023-08-17T08:36:08;94874.50;;;28.44;79.25
38400;BME280;24180;42.676;23.320;2023-08-17T08:38:33;94869.84;;;28.34;79.24
38400;BME280;24180;42.676;23.320;2023-08-17T08:40:59;94883.56;;;28.43;79.25
38400;BME280;24180;42.676;23.320;2023-08-17T08:43:26;94843.41;;;28.49;79.25
38400;BME280;24180;42.676;23.320;2023-08-17T08:45:51;94876.38;;;28.65;79.26
38400;BME280;24180;42.676;23.320;2023-08-17T08:48:18;94865.72;;;28.65;79.26
38400;BME280;24180;42.676;23.320;2023-08-17T08:50:45;94851.59;;;28.43;79.25
38400;BME280;24180;42.676;23.320;2023-08-17T08:53:15;94841.88;;;28.54;79.26
38400;BME280;24180;42.676;23.320;2023-08-17T08:55:57;60034.38;;;24.24;78.88
38400;BME280;24180;42.676;23.320;2023-08-17T08:58:25;94842.34;;;28.50;79.25
38400;BME280;24180;42.676;23.320;2023-08-17T09:00:52;94872.59;;;28.83;79.27
38400;BME280;24180;42.676;23.320;2023-08-17T09:03:17;94869.00;;;28.87;79.28
38400;BME280;24180;42.676;23.320;2023-08-17T09:05:47;60017.63;;;24.24;78.88
38400;BME280;24180;42.676;23.320;2023-08-17T09:08:15;94868.28;;;29.04;79.30
38400;BME280;24180;42.676;23.320;2023-08-17T09:10:41;94823.59;;;28.89;79.28
38400;BME280;24180;42.676;23.320;2023-08-17T09:13:07;94784.88;;;28.81;79.28
38400;BME280;24180;42.676;23.320;2023-08-17T09:15:33;94804.31;;;28.82;79.28
38400;BME280;24180;42.676;23.320;2023-08-17T09:17:59;94847.28;;;29.07;79.30
38400;BME280;24180;42.676;23.320;2023-08-17T09:20:41;94849.88;;;29.02;79.30
38400;BME280;24180;42.676;23.320;2023-08-17T09:23:14;60017.63;;;24.24;78.88
38400;BME280;24180;42.676;23.320;2023-08-17T09:25:42;94791.28;;;29.07;79.30
38400;BME280;24180;42.676;23.320;2023-08-17T09:28:10;94818.09;;;29.22;79.31
38400;BME280;24180;42.676;23.320;2023-08-17T09:30:58;60017.63;;;24.24;79.09
38400;BME280;24180;42.676;23.320;2023-08-17T09:33:29;94901.44;;;29.35;79.33
38400;BME280;24180;42.676;23.320;2023-08-17T09:35:56;94838.81;;;29.42;79.52
38400;BME280;24180;42.676;23.320;2023-08-17T09:38:22;94887.53;;;29.33;79.51
38400;BME280;24180;42.676;23.320;2023-08-17T09:40:48;94836.78;;;29.54;79.53
38400;BME280;24180;42.676;23.320;2023-08-17T09:43:14;94817.47;;;29.34;79.50
38400;BME280;24180;42.676;23.320;2023-08-17T09:45:41;59950.53;;;24.41;79.09
38400;BME280;24180;42.676;23.320;2023-08-17T09:48:09;94816.34;;;29.38;79.51
38400;BME280;24180;42.676;23.320;2023-08-17T09:50:35;59950.53;;;24.41;79.09
38400;BME280;24180;42.676;23.320;2023-08-17T09:53:02;59950.53;;;24.41;79.09
38400;BME280;24180;42.676;23.320;2023-08-17T09:55:30;59816.19;;;24.41;79.48
38400;BME280;24180;42.676;23.320;2023-08-17T09:57:57;59950.53;;;24.24;79.09
38400;BME280;24180;42.676;23.320;2023-08-17T10:00:23;94751.94;;;29.98;79.56
38400;BME280;24180;42.676;23.320;2023-08-17T10:02:50;59950.53;;;24.41;79.09
38400;BME280;24180;42.676;23.320;2023-08-17T10:05:20;59950.53;;;24.41;79.09
38400;BME280;24180;42.676;23.320;2023-08-17T10:07:57;59950.53;;;24.41;79.09
38400;BME280;24180;42.676;23.320;2023-08-17T10:10:27;59950.53;;;24.24;79.07
38400;BME280;24180;42.676;23.320;2023-08-17T10:15:21;59950.53;;;24.24;79.09
38400;BME280;24180;42.676;23.320;2023-08-17T10:20:47;59950.53;;;24.41;79.09
38400;BME280;24180;42.676;23.320;2023-08-17T10:23:17;59950.53;;;24.41;79.09
38400;BME280;24180;42.676;23.320;2023-08-17T10:25:45;59950.53;;;24.41;79.09
38400;BME280;24180;42.676;23.320;2023-08-17T10:28:13;59782.84;;;24.41;79.09
38400;BME280;24180;42.676;23.320;2023-08-17T10:30:38;59816.19;;;24.73;79.48
38400;BME280;24180;42.676;23.320;2023-08-17T10:33:05;59277.25;;;24.73;80.96
38400;BME280;24180;42.676;23.320;2023-08-17T10:35:32;58941.09;;;26.03;81.82
38400;BME280;24180;42.676;23.320;2023-08-17T10:37:59;59006.88;;;26.03;81.88
38400;BME280;24180;42.676;23.320;2023-08-17T10:40:28;59949.66;;;24.73;79.59
38400;BME280;24180;42.676;23.320;2023-08-17T10:42:54;39418.59;;;29.27;91.67
38400;BME280;24180;42.676;23.320;2023-08-17T10:45:30;59816.19;;;24.73;79.48
38400;BME280;24180;42.676;23.320;2023-08-17T10:50:30;59816.19;;;24.41;79.48
38400;BME280;24180;42.676;23.320;2023-08-17T10:52:56;59816.19;;;24.41;79.48
38400;BME280;24180;42.676;23.320;2023-08-17T10:55:38;59782.84;;;24.41;79.48
38400;BME280;24180;42.676;23.320;2023-08-17T10:58:07;59816.19;;;24.41;79.46
38400;BME280;24180;42.676;23.320;2023-08-17T11:00:40;59816.19;;;24.41;79.48
38400;BME280;24180;42.676;23.320;2023-08-17T11:03:09;59816.19;;;24.41;79.59
38400;BME280;24180;42.676;23.320;2023-08-17T11:08:07;59816.19;;;24.73;79.46
38400;BME280;24180;42.676;23.320;2023-08-17T11:10:37;59983.94;;;24.41;79.11
38400;BME280;24180;42.676;23.320;2023-08-17T11:13:03;59816.19;;;24.41;79.48
38400;BME280;24180;42.676;23.320;2023-08-17T11:15:36;59816.19;;;24.41;79.48
38400;BME280;24180;42.676;23.320;2023-08-17T11:18:08;59816.19;;;24.41;79.46
38400;BME280;24180;42.676;23.320;2023-08-17T11:20:35;59816.19;;;24.41;79.59
38400;BME280;24180;42.676;23.320;2023-08-17T11:23:01;59816.19;;;24.41;79.46
38400;BME280;24180;42.676;23.320;2023-08-17T11:25:27;59816.19;;;24.41;79.48
38400;BME280;24180;42.676;23.320;2023-08-17T11:27:56;59816.19;;;24.41;79.59
38400;BME280;24180;42.676;23.320;2023-08-17T11:30:21;59983.94;;;24.41;79.46
38400;BME280;24180;42.676;23.320;2023-08-17T11:32:50;59782.84;;;24.41;79.46
38400;BME280;24180;42.676;23.320;2023-08-17T11:35:16;59816.19;;;24.41;79.59
38400;BME280;24180;42.676;23.320;2023-08-17T11:37:41;59816.19;;;24.41;79.46
38400;BME280;24180;42.676;23.320;2023-08-17T11:40:07;59816.19;;;24.41;79.48
38400;BME280;24180;42.676;23.320;2023-08-17T11:42:36;59950.53;;;24.41;79.09
38400;BME280;24180;42.676;23.320;2023-08-17T11:45:02;59950.53;;;24.41;79.11
38400;BME280;24180;42.676;23.320;2023-08-17T11:47:27;59950.53;;;24.41;79.09
38400;BME280;24180;42.676;23.320;2023-08-17T11:49:59;59950.53;;;24.41;79.09
38400;BME280;24180;42.676;23.320;2023-08-17T11:52:26;59950.53;;;24.41;79.09
38400;BME280;24180;42.676;23.320;2023-08-17T11:54:55;59950.53;;;24.41;79.09
38400;BME280;24180;42.676;23.320;2023-08-17T11:57:21;59950.53;;;24.41;79.11
38400;BME280;24180;42.676;23.320;2023-08-17T11:59:46;59950.53;;;24.41;79.09
38400;BME280;24180;42.676;23.320;2023-08-17T12:02:12;59950.53;;;24.41;79.09
38400;BME280;24180;42.676;23.320;2023-08-17T12:04:37;59950.53;;;24.41;79.09
38400;BME280;24180;42.676;23.320;2023-08-17T12:07:03;59950.53;;;24.41;79.09
38400;BME280;24180;42.676;23.320;2023-08-17T12:09:32;59950.53;;;24.41;79.09
38400;BME280;24180;42.676;23.320;2023-08-17T12:12:01;59950.53;;;24.41;79.09
38400;BME280;24180;42.676;23.320;2023-08-17T12:14:28;59950.53;;;24.41;79.09
38400;BME280;24180;42.676;23.320;2023-08-17T12:16:54;59950.53;;;24.41;79.09
38400;BME280;24180;42.676;23.320;2023-08-17T12:19:20;59950.53;;;24.41;79.09
38400;BME280;24180;42.676;23.320;2023-08-17T12:21:48;59950.53;;;24.41;79.09
38400;BME280;24180;42.676;23.320;2023-08-17T12:24:13;59950.53;;;24.41;79.09
38400;BME280;24180;42.676;23.320;2023-08-17T12:26:45;59950.53;;;24.41;79.09
38400;BME280;24180;42.676;23.320;2023-08-17T12:29:11;59950.53;;;24.41;79.09
38400;BME280;24180;42.676;23.320;2023-08-17T12:31:37;59950.53;;;24.41;79.09
38400;BME280;24180;42.676;23.320;2023-08-17T12:34:02;59950.53;;;24.41;79.09
38400;BME280;24180;42.676;23.320;2023-08-17T12:36:28;59950.53;;;24.41;79.09
38400;BME280;24180;42.676;23.320;2023-08-17T12:38:54;59950.53;;;24.41;79.09
38400;BME280;24180;42.676;23.320;2023-08-17T12:41:20;59950.53;;;24.41;79.09
38400;BME280;24180;42.676;23.320;2023-08-17T12:43:46;59950.53;;;24.41;79.09
38400;BME280;24180;42.676;23.320;2023-08-17T12:46:11;59950.53;;;24.41;79.09
38400;BME280;24180;42.676;23.320;2023-08-17T12:48:38;59950.53;;;24.41;79.09
38400;BME280;24180;42.676;23.320;2023-08-17T12:51:03;59950.53;;;24.41;79.09
38400;BME280;24180;42.676;23.320;2023-08-17T12:53:29;59950.53;;;24.24;79.09
38400;BME280;24180;42.676;23.320;2023-08-17T12:55:55;59950.53;;;24.24;79.09
38400;BME280;24180;42.676;23.320;2023-08-17T12:58:20;59950.53;;;24.24;79.07